Time;durP1;ratioP1;P1;durP2;ratioP2;P2;SDS_P1;SDS_P2;PMS_P1;PMS_P2;Temp;Humidity;BMP_temperature;BMP_pressure;BME280_temperature;BME280_humidity;BME280_pressure;Samples;Min_cycle;Max_cycle;Signal;HPM_P1;HPM_P2
2021/01/17 00:00:18;;;;;;;30.37;16.03;;;1.30;91.20;;;;;;6275793;22;20067;-80
2021/01/17 00:02:45;;;;;;;32.73;15.93;;;1.30;91.20;;;;;;6276067;22;19996;-80
2021/01/17 00:05:12;;;;;;;32.40;16.57;;;1.30;91.40;;;;;;6276635;22;20270;-81
2021/01/17 00:07:39;;;;;;;31.73;16.13;;;1.30;91.30;;;;;;6277374;22;20055;-81
2021/01/17 00:10:12;;;;;;;33.63;15.70;;;1.30;91.30;;;;;;6275819;22;20002;-80
2021/01/17 00:12:38;;;;;;;31.60;16.07;;;1.20;91.10;;;;;;6275993;22;20027;-81
2021/01/17 00:15:11;;;;;;;31.47;15.90;;;1.20;91.30;;;;;;6276877;22;20007;-81
2021/01/17 00:17:37;;;;;;;33.93;16.20;;;1.30;91.60;;;;;;6274581;22;20008;-81
2021/01/17 00:20:10;;;;;;;32.27;16.87;;;1.30;91.30;;;;;;6275868;22;20004;-81
2021/01/17 00:22:37;;;;;;;33.87;16.53;;;1.20;92.00;;;;;;6276626;22;19999;-81
2021/01/17 00:25:05;;;;;;;30.67;16.57;;;1.30;91.50;;;;;;6276182;22;19996;-81
2021/01/17 00:27:30;;;;;;;29.20;15.87;;;1.30;91.20;;;;;;6276427;22;20007;-80
2021/01/17 00:29:56;;;;;;;30.77;16.43;;;1.30;91.00;;;;;;6276036;22;20010;-81
2021/01/17 00:32:21;;;;;;;32.60;16.40;;;1.20;91.10;;;;;;6276139;22;20422;-81
2021/01/17 00:34:47;;;;;;;34.53;16.53;;;1.20;91.30;;;;;;6276493;22;20011;-80
2021/01/17 00:37:17;;;;;;;32.13;16.07;;;1.20;91.20;;;;;;6275923;22;20008;-81
2021/01/17 00:39:43;;;;;;;30.10;16.40;;;1.30;91.00;;;;;;6275324;22;20037;-81
2021/01/17 00:42:13;;;;;;;31.13;16.33;;;1.20;90.70;;;;;;6276638;22;20030;-82
2021/01/17 00:44:39;;;;;;;29.77;14.67;;;1.30;90.80;;;;;;6276590;22;20000;-81
2021/01/17 00:47:05;;;;;;;31.73;15.60;;;1.30;90.90;;;;;;6249591;22;20026;-80
2021/01/17 00:49:31;;;;;;;30.43;15.63;;;1.30;90.90;;;;;;6275959;22;20367;-81
2021/01/17 00:51:57;;;;;;;31.03;15.43;;;1.30;91.00;;;;;;6276563;22;20007;-81
2021/01/17 00:54:23;;;;;;;32.93;16.57;;;1.30;90.70;;;;;;6276470;22;20326;-81
2021/01/17 00:56:48;;;;;;;31.07;15.70;;;1.30;90.60;;;;;;6276341;22;20299;-80
2021/01/17 00:59:14;;;;;;;30.67;15.37;;;1.30;90.50;;;;;;6273870;22;20008;-81
2021/01/17 01:01:41;;;;;;;32.23;15.80;;;1.30;90.50;;;;;;6276152;22;20000;-81
2021/01/17 01:04:09;;;;;;;28.73;15.70;;;1.30;90.50;;;;;;6276505;22;20000;-81
2021/01/17 01:06:35;;;;;;;33.13;15.33;;;1.30;90.70;;;;;;6276076;22;20312;-81
2021/01/17 01:09:04;;;;;;;29.23;15.67;;;1.30;90.60;;;;;;6275469;22;20000;-80
2021/01/17 01:11:30;;;;;;;31.25;16.15;;;1.30;90.80;;;;;;6274211;22;20007;-81
2021/01/17 01:13:55;;;;;;;28.90;15.47;;;1.20;90.70;;;;;;6277519;22;20010;-82
2021/01/17 01:16:21;;;;;;;31.03;15.67;;;1.20;90.70;;;;;;6277990;22;20130;-80
2021/01/17 01:18:47;;;;;;;29.33;15.53;;;1.30;91.20;;;;;;6277642;22;20035;-80
2021/01/17 01:21:12;;;;;;;31.87;15.90;;;1.20;90.80;;;;;;6277510;22;20038;-81
2021/01/17 01:23:40;;;;;;;29.43;15.30;;;1.20;90.70;;;;;;6278035;22;19996;-80
2021/01/17 01:26:05;;;;;;;32.20;16.87;;;1.20;91.40;;;;;;6278188;22;19996;-80
2021/01/17 01:28:31;;;;;;;31.60;16.10;;;1.20;91.00;;;;;;6277916;22;19996;-80
2021/01/17 01:30:57;;;;;;;34.90;16.80;;;1.20;91.00;;;;;;6277162;22;20000;-80
2021/01/17 01:33:23;;;;;;;32.20;16.90;;;1.20;91.00;;;;;;6277707;22;20007;-80
2021/01/17 01:35:49;;;;;;;30.70;16.03;;;1.20;90.80;;;;;;6276212;22;20003;-81
2021/01/17 01:38:15;;;;;;;33.83;16.47;;;1.20;90.70;;;;;;6278221;22;20034;-80
2021/01/17 01:40:51;;;;;;;34.37;16.47;;;1.30;90.60;;;;;;6277677;22;20356;-80
2021/01/17 01:43:24;;;;;;;33.67;16.27;;;1.20;90.60;;;;;;6278017;22;20003;-81
2021/01/17 01:45:50;;;;;;;31.73;16.57;;;1.20;90.80;;;;;;6278092;22;20430;-80
2021/01/17 01:48:17;;;;;;;30.43;15.73;;;1.20;90.60;;;;;;6277568;22;20435;-80
2021/01/17 01:50:43;;;;;;;34.67;17.13;;;1.20;90.70;;;;;;6277508;22;20003;-80
2021/01/17 01:53:12;;;;;;;31.23;16.03;;;1.20;91.10;;;;;;6276090;22;20012;-80
2021/01/17 01:55:38;;;;;;;33.08;17.23;;;1.20;90.90;;;;;;6277963;22;20102;-81
2021/01/17 01:58:08;;;;;;;36.37;18.43;;;1.30;91.20;;;;;;6277873;22;19999;-81
2021/01/17 02:00:33;;;;;;;35.35;16.92;;;1.20;90.90;;;;;;6277495;22;20011;-81
2021/01/17 02:02:59;;;;;;;34.83;17.43;;;1.20;90.90;;;;;;6278117;22;20004;-81
2021/01/17 02:05:27;;;;;;;34.80;18.40;;;1.20;90.80;;;;;;6277770;22;19995;-81
2021/01/17 02:08:12;;;;;;;32.17;16.77;;;1.30;90.90;;;;;;6250418;22;20004;-81
2021/01/17 02:10:40;;;;;;;33.27;16.47;;;1.30;90.70;;;;;;6277155;22;20331;-81
2021/01/17 02:13:37;;;;;;;35.33;18.37;;;1.30;91.00;;;;;;6277561;22;20026;-81
2021/01/17 02:16:05;;;;;;;33.07;17.23;;;1.30;90.60;;;;;;6253156;22;20011;-81
2021/01/17 02:18:34;;;;;;;35.90;17.87;;;1.40;90.90;;;;;;6277477;22;20010;-81
2021/01/17 02:21:02;;;;;;;34.85;17.33;;;1.30;90.70;;;;;;6277246;22;20448;-81
2021/01/17 02:23:40;;;;;;;35.00;17.57;;;1.40;90.60;;;;;;6277469;22;20031;-81
2021/01/17 02:26:07;;;;;;;35.30;17.53;;;1.30;90.70;;;;;;6277496;22;20388;-81
2021/01/17 02:28:33;;;;;;;33.87;17.43;;;1.30;90.80;;;;;;6277591;22;20007;-81
2021/01/17 02:31:02;;;;;;;37.50;18.50;;;1.30;90.80;;;;;;6277201;22;20010;-81
2021/01/17 02:33:34;;;;;;;36.60;17.83;;;1.30;90.80;;;;;;6276842;22;20012;-81
2021/01/17 02:36:14;;;;;;;36.00;16.87;;;1.20;90.80;;;;;;6277267;22;20446;-81
2021/01/17 02:39:05;;;;;;;33.97;17.10;;;1.30;90.80;;;;;;6277162;22;19999;-80
2021/01/17 02:41:54;;;;;;;34.47;17.60;;;1.30;90.90;;;;;;6249615;22;20003;-80
2021/01/17 02:44:20;;;;;;;36.83;17.70;;;1.30;90.80;;;;;;6261647;22;19996;-81
2021/01/17 02:46:46;;;;;;;38.97;18.47;;;1.30;91.00;;;;;;6278365;22;20022;-81
2021/01/17 02:49:11;;;;;;;35.17;17.20;;;1.30;91.10;;;;;;6277670;22;20004;-81
2021/01/17 02:51:37;;;;;;;38.53;17.80;;;1.30;91.00;;;;;;6277809;22;20004;-81
2021/01/17 02:54:13;;;;;;;38.50;18.10;;;1.30;90.90;;;;;;6277603;22;20000;-80
2021/01/17 02:56:50;;;;;;;37.63;17.73;;;1.30;90.70;;;;;;6278135;22;20003;-81
2021/01/17 02:59:19;;;;;;;35.33;17.33;;;1.20;90.90;;;;;;6277471;22;20078;-80
2021/01/17 03:01:48;;;;;;;33.97;17.65;;;1.30;91.00;;;;;;6278114;22;20083;-80
2021/01/17 03:04:24;;;;;;;38.33;18.42;;;1.30;91.00;;;;;;6277966;22;19995;-81
2021/01/17 03:06:49;;;;;;;36.97;17.63;;;1.30;90.90;;;;;;6276705;22;20359;-81
2021/01/17 03:09:15;;;;;;;37.57;18.07;;;1.30;91.00;;;;;;6275837;22;20011;-81
2021/01/17 03:11:41;;;;;;;36.10;18.17;;;1.40;91.00;;;;;;6276921;22;20003;-80
2021/01/17 03:14:08;;;;;;;36.87;18.37;;;1.40;91.00;;;;;;6250484;22;20078;-81
2021/01/17 03:16:34;;;;;;;34.90;18.03;;;1.40;91.00;;;;;;6278098;22;20003;-80
2021/01/17 03:19:00;;;;;;;37.73;18.57;;;1.30;91.00;;;;;;6277181;22;20010;-81
2021/01/17 03:21:29;;;;;;;40.10;19.20;;;1.40;91.00;;;;;;6278220;22;20477;-81
2021/01/17 03:23:54;;;;;;;37.57;18.33;;;1.40;90.90;;;;;;6277926;22;20078;-82
2021/01/17 03:26:20;;;;;;;38.77;19.23;;;1.30;91.00;;;;;;6250808;22;19996;-80
2021/01/17 03:28:45;;;;;;;39.43;19.40;;;1.40;91.00;;;;;;6278350;22;20014;-80
2021/01/17 03:31:11;;;;;;;38.80;18.50;;;1.40;91.00;;;;;;6275636;22;20553;-81
2021/01/17 03:33:36;;;;;;;36.80;17.67;;;1.40;91.10;;;;;;6279359;22;20007;-81
2021/01/17 03:36:02;;;;;;;37.80;18.30;;;1.40;91.00;;;;;;6278245;22;20316;-81
2021/01/17 03:38:28;;;;;;;42.00;19.20;;;1.40;90.90;;;;;;6278324;22;20078;-81
2021/01/17 03:40:53;;;;;;;38.37;18.90;;;1.40;90.90;;;;;;6275894;22;20000;-80
2021/01/17 03:43:19;;;;;;;41.23;19.70;;;1.40;90.80;;;;;;6276348;22;20327;-81
2021/01/17 03:45:45;;;;;;;36.80;18.57;;;1.40;91.00;;;;;;6276129;22;20074;-81
2021/01/17 03:48:10;;;;;;;38.83;19.20;;;1.40;91.00;;;;;;6275934;22;20000;-81
2021/01/17 03:50:36;;;;;;;39.63;17.73;;;1.40;91.10;;;;;;6274160;22;20007;-80
2021/01/17 03:53:01;;;;;;;40.63;18.77;;;1.50;91.20;;;;;;6273586;22;20438;-81
2021/01/17 03:55:27;;;;;;;40.17;18.67;;;1.40;90.80;;;;;;6276110;22;19999;-81
2021/01/17 03:57:52;;;;;;;39.00;19.20;;;1.40;91.30;;;;;;6276145;22;20004;-81
2021/01/17 04:00:19;;;;;;;40.17;18.93;;;1.50;91.10;;;;;;6275451;22;19996;-81
2021/01/17 04:02:44;;;;;;;40.33;18.93;;;1.40;91.20;;;;;;6275875;22;20023;-80
2021/01/17 04:05:10;;;;;;;41.80;19.20;;;1.50;91.30;;;;;;6274393;22;20004;-80
2021/01/17 04:07:36;;;;;;;40.63;19.47;;;1.40;91.00;;;;;;6276024;22;20427;-80
2021/01/17 04:10:03;;;;;;;37.33;19.67;;;1.50;91.30;;;;;;6275723;22;20102;-81
2021/01/17 04:12:29;;;;;;;43.90;19.67;;;1.50;91.20;;;;;;6275419;22;20079;-80
2021/01/17 04:14:54;;;;;;;38.57;19.30;;;1.50;91.10;;;;;;6275783;22;20027;-80
2021/01/17 04:17:20;;;;;;;42.97;19.13;;;1.50;91.20;;;;;;6276085;22;20312;-80
2021/01/17 04:19:45;;;;;;;44.37;19.67;;;1.50;91.10;;;;;;6275606;22;20000;-81
2021/01/17 04:22:11;;;;;;;41.87;19.40;;;1.50;91.00;;;;;;6275780;22;20003;-81
2021/01/17 04:24:37;;;;;;;39.00;18.83;;;1.50;90.80;;;;;;6275957;22;20027;-80
2021/01/17 04:27:02;;;;;;;40.20;19.27;;;1.50;90.90;;;;;;6276281;22;20030;-81
2021/01/17 04:29:28;;;;;;;41.80;20.47;;;1.50;91.00;;;;;;6275084;22;19996;-81
2021/01/17 04:31:55;;;;;;;41.87;19.90;;;1.50;91.10;;;;;;6275660;22;20035;-81
2021/01/17 04:34:22;;;;;;;39.57;19.10;;;1.50;91.20;;;;;;6275996;22;20000;-81
2021/01/17 04:36:48;;;;;;;40.83;19.47;;;1.50;91.00;;;;;;6275930;22;19996;-81
2021/01/17 04:39:14;;;;;;;41.37;19.83;;;1.40;90.70;;;;;;6276014;22;20014;-81
2021/01/17 04:41:42;;;;;;;40.57;18.63;;;1.50;91.10;;;;;;6276420;22;20079;-81
2021/01/17 04:44:10;;;;;;;42.73;19.20;;;1.50;91.10;;;;;;6281121;22;20467;-81
2021/01/17 04:46:37;;;;;;;44.27;19.33;;;1.50;91.10;;;;;;6281033;22;19996;-81
2021/01/17 04:49:06;;;;;;;42.60;18.80;;;1.40;91.10;;;;;;6282205;22;20311;-81
2021/01/17 04:51:32;;;;;;;40.33;18.55;;;1.50;91.00;;;;;;6283514;22;20055;-82
2021/01/17 04:53:59;;;;;;;39.80;18.40;;;1.50;91.00;;;;;;6283184;22;20007;-82
2021/01/17 04:56:34;;;;;;;39.63;19.43;;;1.40;91.00;;;;;;6283279;22;20003;-82
2021/01/17 04:59:10;;;;;;;40.90;19.07;;;1.40;91.00;;;;;;6283403;22;20014;-81
2021/01/17 05:01:52;;;;;;;42.73;19.50;;;1.50;90.90;;;;;;6283832;22;20450;-82
2021/01/17 05:04:39;;;;;;;41.33;18.93;;;1.40;91.10;;;;;;6283795;22;20003;-81
2021/01/17 05:07:16;;;;;;;43.23;20.10;;;1.50;91.10;;;;;;6278048;22;20000;-80
2021/01/17 05:09:54;;;;;;;42.10;19.53;;;1.50;91.10;;;;;;6277312;22;20390;-80
2021/01/17 05:12:30;;;;;;;44.03;20.50;;;1.50;91.20;;;;;;6277682;22;19999;-80
2021/01/17 05:14:56;;;;;;;44.90;20.63;;;1.40;91.20;;;;;;6277892;22;20000;-80
2021/01/17 05:17:23;;;;;;;41.67;19.43;;;1.50;91.30;;;;;;6277951;22;20003;-80
2021/01/17 05:19:49;;;;;;;40.60;19.00;;;1.50;91.30;;;;;;6277262;22;20424;-80
2021/01/17 05:22:15;;;;;;;44.70;20.00;;;1.50;91.20;;;;;;6277531;22;20027;-80
2021/01/17 05:24:45;;;;;;;44.10;19.73;;;1.50;91.00;;;;;;6276073;22;20090;-80
2021/01/17 05:27:11;;;;;;;45.67;20.03;;;1.50;91.20;;;;;;6277903;22;20413;-81
2021/01/17 05:29:36;;;;;;;43.37;20.20;;;1.50;91.30;;;;;;6277103;22;20071;-80
2021/01/17 05:32:05;;;;;;;42.10;19.23;;;1.50;91.00;;;;;;6278017;22;20435;-80
2021/01/17 05:34:32;;;;;;;40.30;19.70;;;1.50;91.10;;;;;;6276858;22;20042;-80
2021/01/17 05:37:09;;;;;;;45.57;20.70;;;1.50;91.10;;;;;;6276677;22;20003;-80
2021/01/17 05:40:03;;;;;;;43.43;20.17;;;1.50;91.10;;;;;;6275921;22;20031;-80
2021/01/17 05:42:29;;;;;;;44.57;21.73;;;1.50;91.20;;;;;;6276713;22;20000;-80
2021/01/17 05:45:17;;;;;;;40.10;19.87;;;1.50;91.30;;;;;;6276744;22;20007;-80
2021/01/17 05:47:59;;;;;;;46.43;20.13;;;1.60;91.10;;;;;;6276874;22;20012;-80
2021/01/17 05:50:27;;;;;;;43.87;19.13;;;1.50;91.00;;;;;;6275854;22;20069;-80
2021/01/17 05:52:53;;;;;;;42.93;19.93;;;1.50;91.10;;;;;;6274692;22;20035;-80
2021/01/17 05:55:31;;;;;;;39.87;19.53;;;1.50;91.00;;;;;;6276613;22;20089;-80
2021/01/17 05:58:24;;;;;;;44.73;19.93;;;1.50;91.00;;;;;;6276691;22;20023;-80
2021/01/17 06:00:52;;;;;;;42.83;20.10;;;1.50;91.10;;;;;;6275362;22;20047;-80
2021/01/17 06:03:33;;;;;;;42.13;19.57;;;1.50;91.00;;;;;;6276439;22;20019;-80
2021/01/17 06:06:03;;;;;;;47.23;20.13;;;1.50;90.90;;;;;;6276546;22;20454;-80
2021/01/17 06:08:29;;;;;;;43.43;20.67;;;1.50;91.20;;;;;;6276413;22;20008;-80
2021/01/17 06:11:09;;;;;;;40.53;19.53;;;1.50;91.30;;;;;;6274247;22;20035;-80
2021/01/17 06:13:40;;;;;;;43.70;20.00;;;1.50;91.00;;;;;;6276398;22;20073;-80
2021/01/17 06:16:26;;;;;;;48.30;19.50;;;1.60;91.10;;;;;;6276798;22;20304;-80
2021/01/17 06:18:57;;;;;;;42.87;19.87;;;1.50;91.00;;;;;;6276030;22;20135;-80
2021/01/17 06:21:27;;;;;;;43.00;19.93;;;1.60;91.30;;;;;;6276473;22;19995;-81
2021/01/17 06:24:03;;;;;;;44.73;20.83;;;1.50;91.10;;;;;;6276326;22;20000;-81
2021/01/17 06:26:30;;;;;;;46.33;20.50;;;1.50;91.20;;;;;;6276470;22;20002;-80
2021/01/17 06:28:57;;;;;;;46.23;20.83;;;1.50;91.20;;;;;;6275695;22;20334;-80
2021/01/17 06:31:28;;;;;;;48.97;20.00;;;1.50;91.20;;;;;;6276026;22;20067;-80
2021/01/17 06:34:04;;;;;;;43.23;20.20;;;1.50;91.10;;;;;;6276434;22;20053;-80
2021/01/17 06:36:30;;;;;;;43.87;20.07;;;1.60;91.30;;;;;;6276461;22;20004;-80
2021/01/17 06:38:56;;;;;;;46.93;20.57;;;1.60;91.20;;;;;;6275538;22;20000;-80
2021/01/17 06:41:53;;;;;;;42.07;20.33;;;1.60;91.10;;;;;;6276166;22;20071;-80
2021/01/17 06:44:25;;;;;;;45.27;19.83;;;1.60;91.30;;;;;;6274772;22;20010;-81
2021/01/17 06:46:51;;;;;;;44.50;20.47;;;1.50;91.30;;;;;;6276665;22;20431;-80
2021/01/17 06:49:40;;;;;;;48.17;20.37;;;1.50;91.30;;;;;;6275707;22;20000;-80
2021/01/17 06:52:08;;;;;;;51.55;22.30;;;1.50;91.50;;;;;;6237183;22;20004;-80
2021/01/17 06:54:39;;;;;;;48.50;20.93;;;1.50;91.50;;;;;;6276023;22;20133;-81
2021/01/17 06:57:06;;;;;;;51.13;21.93;;;1.50;91.50;;;;;;6276228;22;20035;-80
2021/01/17 06:59:40;;;;;;;49.77;20.37;;;1.60;91.50;;;;;;6275103;22;20027;-80
2021/01/17 07:02:15;;;;;;;48.20;21.20;;;1.50;91.50;;;;;;6276306;22;20227;-80
2021/01/17 07:04:41;;;;;;;49.93;21.80;;;1.50;91.70;;;;;;6276597;22;20023;-80
2021/01/17 07:07:45;;;;;;;51.53;21.37;;;1.50;91.70;;;;;;6276380;22;20382;-80
2021/01/17 07:10:11;;;;;;;50.00;21.40;;;1.60;91.60;;;;;;6275410;22;20073;-80
2021/01/17 07:13:02;;;;;;;49.90;21.57;;;1.60;91.70;;;;;;6275945;22;20038;-80
2021/01/17 07:15:35;;;;;;;50.53;21.83;;;1.50;91.70;;;;;;6276202;22;20007;-80
2021/01/17 07:18:04;;;;;;;53.93;21.60;;;1.50;91.70;;;;;;6275962;22;20113;-80
2021/01/17 07:20:40;;;;;;;46.40;21.27;;;1.50;92.10;;;;;;6275568;22;19999;-80
2021/01/17 07:23:08;;;;;;;49.97;21.60;;;1.60;92.00;;;;;;6248448;22;20350;-80
2021/01/17 07:25:36;;;;;;;52.37;21.93;;;1.50;91.90;;;;;;6275584;22;20034;-80
2021/01/17 07:28:04;;;;;;;51.00;21.43;;;1.50;92.10;;;;;;6276129;22;20054;-80
2021/01/17 07:30:36;;;;;;;51.60;21.47;;;1.50;92.30;;;;;;6274998;22;20031;-80
2021/01/17 07:33:04;;;;;;;57.60;23.20;;;1.50;92.30;;;;;;6275089;22;20086;-80
2021/01/17 07:35:38;;;;;;;54.23;23.23;;;1.50;92.30;;;;;;6248576;22;20328;-80
2021/01/17 07:38:16;;;;;;;57.00;23.87;;;1.50;92.60;;;;;;6275964;22;20441;-80
2021/01/17 07:40:58;;;;;;;52.27;21.93;;;1.50;92.40;;;;;;6275224;22;19996;-80
2021/01/17 07:43:39;;;;;;;52.80;22.83;;;1.50;92.50;;;;;;6276247;22;19995;-80
2021/01/17 07:46:09;;;;;;;51.80;21.43;;;1.50;92.50;;;;;;6276330;22;20010;-80
2021/01/17 07:48:35;;;;;;;55.40;23.97;;;1.50;92.50;;;;;;6276450;22;20007;-80
2021/01/17 07:51:03;;;;;;;53.37;22.37;;;1.60;92.40;;;;;;6275545;22;20082;-80
2021/01/17 07:53:37;;;;;;;60.93;23.47;;;1.60;92.30;;;;;;6275754;22;19995;-82
2021/01/17 07:56:10;;;;;;;54.83;22.17;;;1.60;92.40;;;;;;6276081;22;20023;-82
2021/01/17 07:58:47;;;;;;;52.70;22.63;;;1.60;92.50;;;;;;6276064;22;20073;-81
2021/01/17 08:01:40;;;;;;;59.00;23.37;;;1.60;92.50;;;;;;6275683;22;20061;-81
2021/01/17 08:04:05;;;;;;;55.20;22.67;;;1.50;92.50;;;;;;6271166;22;20023;-80
2021/01/17 08:06:37;;;;;;;53.03;21.80;;;1.50;92.50;;;;;;6276203;22;20334;-80
2021/01/17 08:09:07;;;;;;;55.13;23.53;;;1.50;92.50;;;;;;6275976;22;20031;-80
2021/01/17 08:11:55;;;;;;;57.83;24.17;;;1.50;92.70;;;;;;6276282;22;20010;-81
2021/01/17 08:14:31;;;;;;;60.73;23.87;;;1.50;92.90;;;;;;6276640;22;20003;-81
2021/01/17 08:17:12;;;;;;;57.97;23.27;;;1.50;92.70;;;;;;6276693;22;19999;-80
2021/01/17 08:19:53;;;;;;;60.43;23.17;;;1.50;92.80;;;;;;6275613;22;20011;-81
2021/01/17 08:22:19;;;;;;;53.33;22.30;;;1.50;92.90;;;;;;6276412;22;19996;-80
2021/01/17 08:24:54;;;;;;;55.47;23.60;;;1.60;92.90;;;;;;6278696;22;19999;-81
2021/01/17 08:27:35;;;;;;;55.10;23.00;;;1.60;92.80;;;;;;6278954;22;20019;-80
2021/01/17 08:30:00;;;;;;;56.57;22.70;;;1.60;92.90;;;;;;6278124;22;20049;-82
2021/01/17 08:32:35;;;;;;;52.60;23.07;;;1.60;92.60;;;;;;6278474;22;20042;-81
2021/01/17 08:35:17;;;;;;;55.33;22.83;;;1.60;92.80;;;;;;6278864;22;19996;-80
2021/01/17 08:37:43;;;;;;;53.37;22.90;;;1.60;92.90;;;;;;6276380;22;20008;-80
2021/01/17 08:40:10;;;;;;;59.67;25.83;;;1.60;92.90;;;;;;6277706;22;20000;-81
2021/01/17 08:42:38;;;;;;;58.50;23.97;;;1.60;93.00;;;;;;6250825;22;20003;-80
2021/01/17 08:45:27;;;;;;;53.30;22.87;;;1.60;93.30;;;;;;6278457;22;20360;-82
2021/01/17 08:47:55;;;;;;;53.10;23.40;;;1.60;93.00;;;;;;6276809;22;20007;-81
2021/01/17 08:50:34;;;;;;;53.87;23.37;;;1.70;93.10;;;;;;6278077;22;20058;-82
2021/01/17 08:53:26;;;;;;;56.50;22.83;;;1.70;93.00;;;;;;6251375;22;20011;-82
2021/01/17 08:55:57;;;;;;;50.30;21.80;;;1.70;93.10;;;;;;6278261;22;20015;-80
2021/01/17 08:58:26;;;;;;;54.90;23.20;;;1.70;93.00;;;;;;6277344;22;20084;-80
2021/01/17 09:00:51;;;;;;;54.40;21.47;;;1.70;92.90;;;;;;6277127;22;20049;-80
2021/01/17 09:03:28;;;;;;;55.00;22.47;;;1.70;92.70;;;;;;6275811;22;20234;-81
2021/01/17 09:05:59;;;;;;;48.70;21.13;;;1.80;92.90;;;;;;6277950;22;20010;-81
2021/01/17 09:08:25;;;;;;;50.80;21.23;;;1.80;92.70;;;;;;6277950;22;20002;-80
2021/01/17 09:10:52;;;;;;;49.57;20.80;;;1.80;92.70;;;;;;6277251;22;19999;-80
2021/01/17 09:13:23;;;;;;;50.73;21.83;;;1.80;92.80;;;;;;6277220;22;20008;-81
2021/01/17 09:16:09;;;;;;;50.77;21.63;;;1.80;92.90;;;;;;6276516;22;20004;-81
2021/01/17 09:18:36;;;;;;;51.13;22.20;;;1.80;93.10;;;;;;6278025;22;20537;-80
2021/01/17 09:21:03;;;;;;;47.80;20.93;;;1.80;93.00;;;;;;6278141;22;20003;-80
2021/01/17 09:23:28;;;;;;;48.97;22.20;;;1.80;92.90;;;;;;6277831;22;20022;-80
2021/01/17 09:25:59;;;;;;;45.90;20.80;;;1.80;93.00;;;;;;6277927;22;19999;-81
2021/01/17 09:28:26;;;;;;;45.93;19.90;;;1.80;92.90;;;;;;6278353;22;19999;-82
2021/01/17 09:30:54;;;;;;;49.63;20.93;;;1.80;93.00;;;;;;6277632;22;20004;-80
2021/01/17 09:33:20;;;;;;;45.97;20.73;;;1.80;93.00;;;;;;6278416;22;20015;-81
2021/01/17 09:35:46;;;;;;;46.93;21.63;;;1.80;93.00;;;;;;6278203;22;20027;-82
2021/01/17 09:38:14;;;;;;;50.77;23.37;;;1.80;93.00;;;;;;6278374;22;20011;-80
2021/01/17 09:40:45;;;;;;;48.23;21.90;;;1.90;93.00;;;;;;6277966;22;20010;-81
2021/01/17 09:43:11;;;;;;;45.70;21.43;;;1.90;93.00;;;;;;6278245;22;19996;-82
2021/01/17 09:45:37;;;;;;;50.67;21.43;;;1.90;93.00;;;;;;6251267;22;19999;-82
2021/01/17 09:48:03;;;;;;;47.60;21.23;;;1.90;93.20;;;;;;6278462;22;19999;-81
2021/01/17 09:50:33;;;;;;;48.37;21.63;;;1.90;92.80;;;;;;6250992;22;20031;-81
2021/01/17 09:53:06;;;;;;;52.47;22.27;;;1.90;93.10;;;;;;6277380;22;20000;-80
2021/01/17 09:55:39;;;;;;;50.20;22.57;;;1.80;93.20;;;;;;6275275;22;20442;-80
2021/01/17 09:58:09;;;;;;;46.43;22.10;;;1.90;93.50;;;;;;6277242;22;20000;-81
2021/01/17 10:00:36;;;;;;;51.23;21.93;;;1.90;93.20;;;;;;6276045;22;20006;-80
2021/01/17 10:03:09;;;;;;;50.70;23.00;;;1.90;93.30;;;;;;6249699;22;20374;-81
2021/01/17 10:05:36;;;;;;;48.13;22.23;;;1.90;93.20;;;;;;6276890;22;20003;-81
2021/01/17 10:08:13;;;;;;;48.83;21.97;;;1.90;93.30;;;;;;6250007;22;20011;-80
2021/01/17 10:10:48;;;;;;;54.57;22.10;;;1.90;93.30;;;;;;6276268;22;20027;-81
2021/01/17 10:13:14;;;;;;;51.83;24.00;;;1.90;93.20;;;;;;6274940;22;20498;-80
2021/01/17 10:15:40;;;;;;;51.93;22.83;;;1.90;93.30;;;;;;6276979;22;20023;-81
2021/01/17 10:18:09;;;;;;;54.73;23.97;;;1.90;93.40;;;;;;6276731;22;20003;-80
2021/01/17 10:20:38;;;;;;;50.13;22.90;;;2.00;93.40;;;;;;6276398;22;19996;-81
2021/01/17 10:23:07;;;;;;;52.70;22.85;;;2.00;93.20;;;;;;6276943;22;20023;-80
2021/01/17 10:25:34;;;;;;;49.40;22.93;;;2.00;93.40;;;;;;6276937;22;20024;-80
2021/01/17 10:28:08;;;;;;;54.23;23.97;;;2.10;93.20;;;;;;6277133;22;20003;-81
2021/01/17 10:30:40;;;;;;;53.50;23.70;;;2.00;93.30;;;;;;6276206;22;20011;-81
2021/01/17 10:33:11;;;;;;;53.20;23.37;;;2.00;93.30;;;;;;6276766;22;20039;-80
2021/01/17 10:35:37;;;;;;;57.70;24.73;;;2.00;93.20;;;;;;6276957;22;20049;-81
2021/01/17 10:38:06;;;;;;;51.57;23.90;;;2.00;93.50;;;;;;6277230;22;20004;-81
2021/01/17 10:40:33;;;;;;;55.53;23.33;;;1.90;93.70;;;;;;6276589;22;20018;-80
2021/01/17 10:43:05;;;;;;;54.90;23.47;;;2.00;93.60;;;;;;6276929;22;20000;-80
2021/01/17 10:45:31;;;;;;;52.33;23.10;;;2.00;93.50;;;;;;6277630;22;20480;-81
2021/01/17 10:48:26;;;;;;;54.97;24.00;;;2.00;93.60;;;;;;6277284;22;20058;-81
2021/01/17 10:50:58;;;;;;;54.47;24.33;;;2.00;93.70;;;;;;6250731;22;20007;-81
2021/01/17 10:53:56;;;;;;;56.40;23.77;;;2.00;93.70;;;;;;6277641;22;20085;-81
2021/01/17 10:56:22;;;;;;;57.17;24.27;;;2.00;93.80;;;;;;6271835;22;19999;-81
2021/01/17 10:58:49;;;;;;;56.33;24.00;;;2.00;93.90;;;;;;6277451;22;20083;-81
2021/01/17 11:01:15;;;;;;;61.07;25.07;;;2.00;93.80;;;;;;6276988;22;19995;-81
2021/01/17 11:03:44;;;;;;;59.40;24.60;;;2.10;93.80;;;;;;6277684;22;20071;-81
2021/01/17 11:06:23;;;;;;;;;;;2.10;93.90;;;;;;6251021;22;20316;-81
2021/01/17 11:08:51;;;;;;;53.67;24.00;;;2.10;93.70;;;;;;6249892;22;19899;-80
2021/01/17 11:11:17;;;;;;;56.23;24.43;;;2.10;94.00;;;;;;6276325;22;20561;-80
2021/01/17 11:13:54;;;;;;;56.90;24.20;;;2.10;94.00;;;;;;6276859;22;20018;-81
2021/01/17 11:16:32;;;;;;;65.90;26.53;;;2.10;94.30;;;;;;6277057;22;20003;-81
2021/01/17 11:18:58;;;;;;;60.27;25.20;;;2.20;94.10;;;;;;6276467;22;20042;-81
2021/01/17 11:21:25;;;;;;;58.67;25.63;;;2.10;94.10;;;;;;6249443;22;20289;-81
2021/01/17 11:23:53;;;;;;;59.97;24.70;;;2.20;94.10;;;;;;6277345;22;19995;-80
2021/01/17 11:26:22;;;;;;;58.57;25.70;;;2.20;94.10;;;;;;6277167;22;20011;-80
2021/01/17 11:28:52;;;;;;;62.53;25.98;;;2.20;94.10;;;;;;6276207;22;20362;-81
2021/01/17 11:31:19;;;;;;;66.00;26.20;;;2.20;94.20;;;;;;6275682;22;20027;-81
2021/01/17 11:33:47;;;;;;;62.33;25.77;;;2.20;94.20;;;;;;6278595;22;20031;-81
2021/01/17 11:36:35;;;;;;;67.40;27.27;;;2.20;94.50;;;;;;6278320;22;20057;-81
2021/01/17 11:39:01;;;;;;;67.82;25.73;;;2.20;94.30;;;;;;6276682;22;20004;-81
2021/01/17 11:41:38;;;;;;;67.17;25.87;;;2.20;94.30;;;;;;6277287;22;20038;-82
2021/01/17 11:44:15;;;;;;;59.03;24.70;;;2.20;94.30;;;;;;6250533;22;20007;-82
2021/01/17 11:46:42;;;;;;;59.87;25.83;;;2.30;94.30;;;;;;6277775;22;20366;-82
2021/01/17 11:49:09;;;;;;;55.40;24.57;;;2.30;94.20;;;;;;6276825;22;20026;-83
2021/01/17 11:51:35;;;;;;;60.33;25.00;;;2.30;94.30;;;;;;6277631;22;20000;-82
2021/01/17 11:54:21;;;;;;;65.13;26.40;;;2.20;94.80;;;;;;6278122;22;20422;-82
2021/01/17 11:56:48;;;;;;;69.60;25.13;;;2.20;94.50;;;;;;6277326;22;20003;-82
2021/01/17 11:59:30;;;;;;;60.27;25.17;;;2.30;94.40;;;;;;6276729;22;20034;-82
2021/01/17 12:01:56;;;;;;;63.67;24.37;;;2.30;94.60;;;;;;6277228;22;20003;-81
2021/01/17 12:04:25;;;;;;;67.93;25.67;;;2.30;94.40;;;;;;6250261;22;20075;-82
2021/01/17 12:07:07;;;;;;;63.30;25.50;;;2.30;94.40;;;;;;6277632;22;20022;-81
2021/01/17 12:09:33;;;;;;;67.30;25.97;;;2.30;94.40;;;;;;6276968;22;20006;-82
2021/01/17 12:12:16;;;;;;;57.90;23.70;;;2.30;94.40;;;;;;6278498;22;20508;-82
2021/01/17 12:14:43;;;;;;;61.47;24.97;;;2.30;94.50;;;;;;6277993;22;20007;-82
2021/01/17 12:17:10;;;;;;;54.83;24.83;;;2.30;94.40;;;;;;6278658;22;20488;-82
2021/01/17 12:19:36;;;;;;;60.03;24.50;;;2.30;94.40;;;;;;6275081;22;20004;-82
2021/01/17 12:22:04;;;;;;;59.40;25.07;;;2.30;94.30;;;;;;6276253;22;20395;-82
2021/01/17 12:24:30;;;;;;;62.40;24.60;;;2.30;94.40;;;;;;6278566;22;20049;-82
2021/01/17 12:26:56;;;;;;;60.73;25.03;;;2.30;94.40;;;;;;6277943;22;20000;-82
2021/01/17 12:29:22;;;;;;;56.67;23.40;;;2.40;94.50;;;;;;6277725;22;20008;-82
2021/01/17 12:31:49;;;;;;;53.33;24.03;;;2.40;94.50;;;;;;6277234;22;20427;-82
2021/01/17 12:34:15;;;;;;;54.27;23.67;;;2.40;94.70;;;;;;6278027;22;20079;-82
2021/01/17 12:36:42;;;;;;;57.07;22.93;;;2.40;94.50;;;;;;6277509;22;20427;-82
2021/01/17 12:39:09;;;;;;;50.63;23.17;;;2.40;94.50;;;;;;6277268;22;20004;-81
2021/01/17 12:41:38;;;;;;;54.53;23.97;;;2.40;94.70;;;;;;6278568;22;20006;-82
2021/01/17 12:44:04;;;;;;;54.10;22.70;;;2.40;94.60;;;;;;6278185;22;19995;-82
2021/01/17 12:46:30;;;;;;;61.00;23.93;;;2.40;94.60;;;;;;6278296;22;20034;-82
2021/01/17 12:48:56;;;;;;;53.03;22.20;;;2.40;94.60;;;;;;6276980;22;20022;-82
2021/01/17 12:51:22;;;;;;;51.67;22.27;;;2.40;94.60;;;;;;6277652;22;20004;-82
2021/01/17 12:53:49;;;;;;;49.53;21.87;;;2.40;94.60;;;;;;6250071;22;20008;-82